createdAt,value
2022-11-22T00:01:34.698Z,95.19
2022-11-22T00:06:56.435Z,94.91
2022-11-22T00:12:18.160Z,94.96
2022-11-22T00:17:40.078Z,95.43
2022-11-22T00:23:01.997Z,95.49
2022-11-22T00:28:23.692Z,94.40
2022-11-22T00:33:45.417Z,95.14
2022-11-22T00:39:07.112Z,93.57
2022-11-22T00:44:28.791Z,93.41
2022-11-22T00:49:50.673Z,93.75
2022-11-22T00:55:12.341Z,93.85
2022-11-22T01:00:34.444Z,92.46
2022-11-22T01:05:56.139Z,93.04
2022-11-22T01:11:18.838Z,92.89
2022-11-22T01:16:40.613Z,93.64
2022-11-22T01:22:02.365Z,93.62
2022-11-22T01:27:24.489Z,93.52
2022-11-22T01:32:46.212Z,94.33
2022-11-22T01:38:07.947Z,94.06
2022-11-22T01:43:29.776Z,94.56
2022-11-22T01:48:56.816Z,95.22
2022-11-22T01:54:24.249Z,95.82
2022-11-22T01:59:53.719Z,95.92
2022-11-22T02:05:17.996Z,94.97
2022-11-22T02:10:44.834Z,95.70
2022-11-22T02:16:07.180Z,94.03
2022-11-22T02:21:29.295Z,94.84
2022-11-22T02:26:50.981Z,94.93
2022-11-22T02:32:12.639Z,96.16
2022-11-22T02:37:34.415Z,96.78
2022-11-22T02:43:01.708Z,96.43
2022-11-22T02:48:23.509Z,96.86
2022-11-22T02:53:49.911Z,96.00
2022-11-22T02:59:11.636Z,97.04
2022-11-22T03:04:33.326Z,97.12
2022-11-22T03:09:54.995Z,97.36
2022-11-22T03:15:16.733Z,97.82
2022-11-22T03:20:38.409Z,96.64
2022-11-22T03:26:00.127Z,97.40
2022-11-22T03:31:21.811Z,96.62
2022-11-22T03:36:43.557Z,97.16
2022-11-22T03:42:05.273Z,95.35
2022-11-22T03:47:26.945Z,96.18
2022-11-22T03:52:48.663Z,96.24
2022-11-22T03:58:10.558Z,97.30
2022-11-22T04:03:32.550Z,96.96
2022-11-22T04:08:54.319Z,96.15
2022-11-22T04:14:34.871Z,96.37
2022-11-22T04:20:15.147Z,96.51
2022-11-22T04:25:39.283Z,96.16
2022-11-22T04:31:19.651Z,96.63
2022-11-22T04:36:41.334Z,96.22
2022-11-22T04:42:21.268Z,96.35
2022-11-22T04:48:01.286Z,96.01
2022-11-22T04:53:23.065Z,95.68
2022-11-22T04:58:44.784Z,95.98
2022-11-22T05:04:06.451Z,96.17
2022-11-22T05:09:28.508Z,95.72
2022-11-22T05:14:50.425Z,95.81
2022-11-22T05:20:12.237Z,96.09
2022-11-22T05:25:33.959Z,95.75
2022-11-22T05:30:56.681Z,96.94
2022-11-22T05:36:19.133Z,97.28
2022-11-22T05:41:55.624Z,96.53
2022-11-22T05:47:17.315Z,96.69
2022-11-22T05:52:39.241Z,96.42
2022-11-22T05:58:01.595Z,96.25
2022-11-22T06:03:23.272Z,95.54
2022-11-22T06:08:47.598Z,94.06
2022-11-22T06:14:09.333Z,95.51
2022-11-22T06:19:31.158Z,95.69
2022-11-22T06:24:52.921Z,95.27
2022-11-22T06:30:15.074Z,95.17
2022-11-22T06:35:36.773Z,94.74
2022-11-22T06:41:06.959Z,95.57
2022-11-22T06:46:28.698Z,95.67
2022-11-22T06:51:50.383Z,93.91
2022-11-22T06:57:15.113Z,93.82
2022-11-22T07:02:36.809Z,94.87
2022-11-22T07:08:05.417Z,96.01
2022-11-22T07:13:29.952Z,95.66
2022-11-22T07:18:51.679Z,96.09
2022-11-22T07:24:14.307Z,95.50
2022-11-22T07:29:35.986Z,95.66
2022-11-22T07:34:57.644Z,95.15
2022-11-22T07:40:19.323Z,94.58
2022-11-22T07:45:40.991Z,93.72
2022-11-22T07:51:07.275Z,91.81
2022-11-22T07:56:28.940Z,91.62
2022-11-22T08:01:50.680Z,91.05
2022-11-22T08:07:12.443Z,89.42
2022-11-22T08:12:34.119Z,89.18
2022-11-22T08:17:55.886Z,89.02
2022-11-22T08:23:17.651Z,90.41
2022-11-22T08:28:40.308Z,89.85
2022-11-22T08:34:02.121Z,90.22
2022-11-22T08:39:23.841Z,88.85
2022-11-22T08:44:45.555Z,88.88
2022-11-22T08:50:07.826Z,89.57
2022-11-22T08:55:29.573Z,88.55
2022-11-22T09:00:51.313Z,89.09
2022-11-22T09:11:59.727Z,87.32
2022-11-22T09:17:21.981Z,89.12
2022-11-22T09:22:43.766Z,87.83
2022-11-22T09:28:05.460Z,86.00
2022-11-22T09:33:27.691Z,86.66
2022-11-22T09:38:50.735Z,86.72
2022-11-22T09:44:36.309Z,87.38
2022-11-22T09:50:26.307Z,85.46
2022-11-22T09:55:52.872Z,84.58
2022-11-22T10:01:23.036Z,83.23
2022-11-22T10:06:54.081Z,83.00
2022-11-22T10:12:39.022Z,81.18
2022-11-22T10:18:05.047Z,81.37
2022-11-22T10:23:27.523Z,80.74
2022-11-22T10:29:03.335Z,80.22
2022-11-22T10:34:46.459Z,80.02
2022-11-22T10:40:18.697Z,81.41
2022-11-22T10:45:59.069Z,77.95
2022-11-22T10:51:31.376Z,80.31
2022-11-22T10:56:55.260Z,78.46
2022-11-22T11:02:38.954Z,78.50
2022-11-22T11:08:21.773Z,77.25
2022-11-22T11:13:47.452Z,78.58
2022-11-22T11:19:20.806Z,74.73
2022-11-22T11:24:42.501Z,76.11
2022-11-22T11:30:04.754Z,74.43
2022-11-22T11:35:29.053Z,74.19
2022-11-22T11:40:50.711Z,73.81
2022-11-22T11:46:26.473Z,74.01
2022-11-22T11:51:54.319Z,71.65
2022-11-22T11:57:19.045Z,71.42
2022-11-22T12:02:46.491Z,70.63
2022-11-22T12:08:31.545Z,67.45
2022-11-22T12:14:19.655Z,68.59
2022-11-22T12:20:00.676Z,69.80
2022-11-22T12:31:36.468Z,68.46
2022-11-22T12:37:12.483Z,70.09
2022-11-22T12:42:43.604Z,68.87
2022-11-22T12:48:13.526Z,71.46
2022-11-22T12:48:23.741Z,69.47
2022-11-22T12:53:39.531Z,68.66
2022-11-22T12:59:17.671Z,68.25
2022-11-22T13:04:52.469Z,67.91
2022-11-22T13:10:26.112Z,67.40
2022-11-22T13:15:51.194Z,67.04
2022-11-22T13:21:22.027Z,66.34
2022-11-22T13:27:14.717Z,67.96
2022-11-22T13:32:41.732Z,68.17
2022-11-22T13:38:21.106Z,69.90
2022-11-22T13:44:26.312Z,69.44
2022-11-22T13:49:49.396Z,67.23
2022-11-22T13:55:38.835Z,67.03
2022-11-22T14:01:03.743Z,67.96
2022-11-22T14:06:30.379Z,67.54
2022-11-22T14:12:10.183Z,66.52
2022-11-22T14:17:54.446Z,65.59
2022-11-22T14:23:34.780Z,67.35
2022-11-22T14:29:16.265Z,65.51
2022-11-22T14:35:03.503Z,66.00
2022-11-22T14:40:40.202Z,65.68
2022-11-22T14:46:30.377Z,66.48
2022-11-22T14:51:55.354Z,66.07
2022-11-22T14:57:24.763Z,68.12
2022-11-22T15:03:31.729Z,68.30
2022-11-22T15:09:45.110Z,66.67
2022-11-22T16:02:47.070Z,69.48
2022-11-22T16:08:12.907Z,69.10
2022-11-22T16:13:36.140Z,69.93
2022-11-22T16:19:24.358Z,69.29
2022-11-22T16:24:46.044Z,70.19
2022-11-22T16:30:11.697Z,71.36
2022-11-22T16:35:33.355Z,71.22
2022-11-22T16:40:57.677Z,72.00
2022-11-22T16:46:19.708Z,72.92
2022-11-22T16:51:44.560Z,73.13
2022-11-22T16:57:14.970Z,70.96
2022-11-22T17:02:41.161Z,72.73
2022-11-22T17:08:02.899Z,73.71
2022-11-22T17:13:26.555Z,71.43
2022-11-22T17:18:48.388Z,70.85
2022-11-22T17:24:19.634Z,70.91
2022-11-22T17:29:50.580Z,71.69
2022-11-22T17:35:12.780Z,73.21
2022-11-22T17:40:34.515Z,72.23
2022-11-22T17:45:56.255Z,72.06
2022-11-22T17:51:17.961Z,71.38
2022-11-22T17:56:39.799Z,72.05
2022-11-22T18:02:01.638Z,72.51
2022-11-22T18:07:24.141Z,72.42
2022-11-22T18:13:05.697Z,72.93
2022-11-22T18:18:55.160Z,73.31
2022-11-22T18:24:09.567Z,73.93
2022-11-22T18:29:46.626Z,74.36
2022-11-22T18:35:08.426Z,74.61
2022-11-22T18:40:30.172Z,75.69
2022-11-22T18:45:51.889Z,75.44
2022-11-22T18:51:13.625Z,75.93
2022-11-22T18:56:39.744Z,75.79
2022-11-22T19:02:01.456Z,75.59
2022-11-22T19:07:23.405Z,75.24
2022-11-22T19:12:45.145Z,75.39
2022-11-22T19:18:09.595Z,76.55
2022-11-22T19:23:32.593Z,76.60
2022-11-22T19:28:55.979Z,76.39
2022-11-22T19:34:18.089Z,77.32
2022-11-22T19:39:39.877Z,77.70
2022-11-22T19:45:01.644Z,77.97
2022-11-22T19:50:23.307Z,77.66
2022-11-22T19:55:45.645Z,79.01
2022-11-22T20:01:09.799Z,77.51
2022-11-22T20:06:33.184Z,78.15
2022-11-22T20:11:54.887Z,78.54
2022-11-22T20:17:16.733Z,79.14
2022-11-22T20:22:38.409Z,78.56
2022-11-22T20:28:00.135Z,76.88
2022-11-22T20:33:21.792Z,78.16
2022-11-22T20:38:44.385Z,78.69
2022-11-22T20:44:06.792Z,78.34
2022-11-22T20:49:30.570Z,79.91
2022-11-22T20:54:52.233Z,78.46
2022-11-22T21:00:14.407Z,79.14
2022-11-22T21:05:36.440Z,79.56
2022-11-22T21:11:13.463Z,78.11
2022-11-22T21:16:35.145Z,77.84
2022-11-22T21:21:56.823Z,78.41
2022-11-22T21:27:20.318Z,78.35
2022-11-22T21:32:42.026Z,78.96
2022-11-22T21:38:03.695Z,79.60
2022-11-22T21:43:26.165Z,80.55
2022-11-22T21:48:50.166Z,81.31
2022-11-22T21:54:11.965Z,81.07
2022-11-22T21:59:34.160Z,81.98
2022-11-22T22:04:55.896Z,81.86
2022-11-22T22:10:17.726Z,81.78
2022-11-22T22:15:39.817Z,81.64
2022-11-22T22:21:07.622Z,81.61
2022-11-22T22:26:31.972Z,80.69
2022-11-22T22:31:53.616Z,80.90
2022-11-22T22:37:15.307Z,80.31
2022-11-22T22:42:37.077Z,79.94
2022-11-22T22:47:58.728Z,79.99
2022-11-22T22:53:20.456Z,80.39
2022-11-22T22:58:42.328Z,80.60
2022-11-22T23:04:04.141Z,80.93
2022-11-22T23:09:25.847Z,81.26
2022-11-22T23:14:47.539Z,81.84
2022-11-22T23:20:09.702Z,82.77
2022-11-22T23:25:31.449Z,82.21
2022-11-22T23:30:53.283Z,82.81
2022-11-22T23:36:17.628Z,83.65
2022-11-22T23:41:39.373Z,83.41
2022-11-22T23:47:01.026Z,84.70
2022-11-22T23:52:22.685Z,83.73
2022-11-22T23:57:44.430Z,83.40
